sensor_id;sensor_type;location;lat;lon;timestamp;temperature;humidity
7388;DHT22;3735;50.136;11.062;2022-08-19T00:01:24;18.50;99.90
7388;DHT22;3735;50.136;11.062;2022-08-19T00:03:52;18.50;99.90
7388;DHT22;3735;50.136;11.062;2022-08-19T00:06:18;18.50;99.90
7388;DHT22;3735;50.136;11.062;2022-08-19T00:08:44;18.50;99.90
7388;DHT22;3735;50.136;11.062;2022-08-19T00:11:10;18.50;99.90
7388;DHT22;3735;50.136;11.062;2022-08-19T00:13:36;18.50;99.90
7388;DHT22;3735;50.136;11.062;2022-08-19T00:16:04;18.40;99.90
7388;DHT22;3735;50.136;11.062;2022-08-19T00:18:32;18.40;99.90
7388;DHT22;3735;50.136;11.062;2022-08-19T00:20:59;18.40;99.90
7388;DHT22;3735;50.136;11.062;2022-08-19T00:23:25;18.40;99.90
7388;DHT22;3735;50.136;11.062;2022-08-19T00:25:51;18.40;99.90
7388;DHT22;3735;50.136;11.062;2022-08-19T00:28:18;18.40;99.90
7388;DHT22;3735;50.136;11.062;2022-08-19T00:30:44;18.40;99.90
7388;DHT22;3735;50.136;11.062;2022-08-19T00:33:10;18.40;99.90
7388;DHT22;3735;50.136;11.062;2022-08-19T00:35:36;18.30;99.90
7388;DHT22;3735;50.136;11.062;2022-08-19T00:38:04;18.30;99.90
7388;DHT22;3735;50.136;11.062;2022-08-19T00:40:32;18.30;99.90
7388;DHT22;3735;50.136;11.062;2022-08-19T00:42:58;18.30;99.90
7388;DHT22;3735;50.136;11.062;2022-08-19T00:45:26;18.30;99.90
7388;DHT22;3735;50.136;11.062;2022-08-19T00:47:56;18.30;99.90
7388;DHT22;3735;50.136;11.062;2022-08-19T00:50:23;18.30;99.90
7388;DHT22;3735;50.136;11.062;2022-08-19T00:52:50;18.30;99.90
7388;DHT22;3735;50.136;11.062;2022-08-19T00:55:24;18.30;99.90
7388;DHT22;3735;50.136;11.062;2022-08-19T00:57:56;18.30;99.90
7388;DHT22;3735;50.136;11.062;2022-08-19T01:00:29;18.30;99.90
7388;DHT22;3735;50.136;11.062;2022-08-19T01:03:02;18.30;99.90
7388;DHT22;3735;50.136;11.062;2022-08-19T01:05:31;18.30;99.90
7388;DHT22;3735;50.136;11.062;2022-08-19T01:07:59;18.30;99.90
7388;DHT22;3735;50.136;11.062;2022-08-19T01:10:30;18.30;99.90
7388;DHT22;3735;50.136;11.062;2022-08-19T01:13:01;18.30;99.90
7388;DHT22;3735;50.136;11.062;2022-08-19T01:15:32;18.30;99.90
7388;DHT22;3735;50.136;11.062;2022-08-19T01:18:08;18.30;99.90
7388;DHT22;3735;50.136;11.062;2022-08-19T01:20:39;18.20;99.90
7388;DHT22;3735;50.136;11.062;2022-08-19T01:23:06;18.10;99.90
7388;DHT22;3735;50.136;11.062;2022-08-19T01:25:45;18.10;99.90
7388;DHT22;3735;50.136;11.062;2022-08-19T01:28:23;18.10;99.90
7388;DHT22;3735;50.136;11.062;2022-08-19T01:30:51;18.10;99.90
7388;DHT22;3735;50.136;11.062;2022-08-19T01:33:17;18.10;99.90
7388;DHT22;3735;50.136;11.062;2022-08-19T01:35:45;18.10;99.90
7388;DHT22;3735;50.136;11.062;2022-08-19T01:38:25;18.10;99.90
7388;DHT22;3735;50.136;11.062;2022-08-19T01:40:52;18.10;99.90
7388;DHT22;3735;50.136;11.062;2022-08-19T01:43:18;18.20;99.90
7388;DHT22;3735;50.136;11.062;2022-08-19T01:45:45;18.20;99.90
7388;DHT22;3735;50.136;11.062;2022-08-19T01:48:12;18.20;99.90
7388;DHT22;3735;50.136;11.062;2022-08-19T01:50:38;18.20;99.90
7388;DHT22;3735;50.136;11.062;2022-08-19T01:53:07;18.10;99.90
7388;DHT22;3735;50.136;11.062;2022-08-19T01:55:39;18.10;99.90
7388;DHT22;3735;50.136;11.062;2022-08-19T01:58:18;18.20;99.90
7388;DHT22;3735;50.136;11.062;2022-08-19T02:00:47;18.20;99.90
7388;DHT22;3735;50.136;11.062;2022-08-19T02:03:14;18.20;99.90
7388;DHT22;3735;50.136;11.062;2022-08-19T02:05:42;18.20;99.90
7388;DHT22;3735;50.136;11.062;2022-08-19T02:08:09;18.20;99.90
7388;DHT22;3735;50.136;11.062;2022-08-19T02:10:40;18.20;99.90
7388;DHT22;3735;50.136;11.062;2022-08-19T02:13:09;18.10;99.90
7388;DHT22;3735;50.136;11.062;2022-08-19T02:15:37;18.10;99.90
7388;DHT22;3735;50.136;11.062;2022-08-19T02:18:03;18.10;99.90
7388;DHT22;3735;50.136;11.062;2022-08-19T02:20:29;18.10;99.90
7388;DHT22;3735;50.136;11.062;2022-08-19T02:22:55;18.10;99.90
7388;DHT22;3735;50.136;11.062;2022-08-19T02:25:20;18.00;99.90
7388;DHT22;3735;50.136;11.062;2022-08-19T02:27:46;18.00;99.90
7388;DHT22;3735;50.136;11.062;2022-08-19T02:30:15;18.00;99.90
7388;DHT22;3735;50.136;11.062;2022-08-19T02:32:42;18.00;99.90
7388;DHT22;3735;50.136;11.062;2022-08-19T02:35:09;18.00;99.90
7388;DHT22;3735;50.136;11.062;2022-08-19T02:37:35;18.00;99.90
7388;DHT22;3735;50.136;11.062;2022-08-19T02:40:20;18.00;99.90
7388;DHT22;3735;50.136;11.062;2022-08-19T02:42:46;18.00;99.90
7388;DHT22;3735;50.136;11.062;2022-08-19T02:45:13;18.00;99.90
7388;DHT22;3735;50.136;11.062;2022-08-19T02:47:40;18.00;99.90
7388;DHT22;3735;50.136;11.062;2022-08-19T02:50:06;18.00;99.90
7388;DHT22;3735;50.136;11.062;2022-08-19T02:52:32;18.10;99.90
7388;DHT22;3735;50.136;11.062;2022-08-19T02:54:59;18.10;99.90
7388;DHT22;3735;50.136;11.062;2022-08-19T02:57:26;18.10;99.90
7388;DHT22;3735;50.136;11.062;2022-08-19T02:59:52;18.20;99.90
7388;DHT22;3735;50.136;11.062;2022-08-19T03:02:19;18.20;99.90
7388;DHT22;3735;50.136;11.062;2022-08-19T03:04:45;18.20;99.90
7388;DHT22;3735;50.136;11.062;2022-08-19T03:07:15;18.20;99.90
7388;DHT22;3735;50.136;11.062;2022-08-19T03:09:42;18.30;99.90
7388;DHT22;3735;50.136;11.062;2022-08-19T03:12:08;18.30;99.90
7388;DHT22;3735;50.136;11.062;2022-08-19T03:14:34;18.30;99.90
7388;DHT22;3735;50.136;11.062;2022-08-19T03:17:00;18.30;99.90
7388;DHT22;3735;50.136;11.062;2022-08-19T03:19:26;18.30;99.90
7388;DHT22;3735;50.136;11.062;2022-08-19T03:21:53;18.40;99.90
7388;DHT22;3735;50.136;11.062;2022-08-19T03:24:19;18.40;99.90
7388;DHT22;3735;50.136;11.062;2022-08-19T03:26:48;18.40;99.90
7388;DHT22;3735;50.136;11.062;2022-08-19T03:29:17;18.40;99.90
7388;DHT22;3735;50.136;11.062;2022-08-19T03:31:44;18.50;99.90
7388;DHT22;3735;50.136;11.062;2022-08-19T03:34:16;18.50;99.90
7388;DHT22;3735;50.136;11.062;2022-08-19T03:36:45;18.50;99.90
7388;DHT22;3735;50.136;11.062;2022-08-19T03:39:12;18.50;99.90
7388;DHT22;3735;50.136;11.062;2022-08-19T03:41:42;18.60;99.90
7388;DHT22;3735;50.136;11.062;2022-08-19T03:44:09;18.60;99.90
7388;DHT22;3735;50.136;11.062;2022-08-19T03:46:35;18.60;99.90
7388;DHT22;3735;50.136;11.062;2022-08-19T03:49:03;18.60;99.90
7388;DHT22;3735;50.136;11.062;2022-08-19T03:51:37;18.60;99.90
7388;DHT22;3735;50.136;11.062;2022-08-19T03:54:09;18.70;99.90
7388;DHT22;3735;50.136;11.062;2022-08-19T03:56:38;18.70;99.90
7388;DHT22;3735;50.136;11.062;2022-08-19T03:59:08;18.70;99.90
7388;DHT22;3735;50.136;11.062;2022-08-19T04:01:36;18.70;99.90
7388;DHT22;3735;50.136;11.062;2022-08-19T04:04:03;18.70;99.90
7388;DHT22;3735;50.136;11.062;2022-08-19T04:06:32;18.80;99.90
7388;DHT22;3735;50.136;11.062;2022-08-19T04:09:02;18.80;99.90
7388;DHT22;3735;50.136;11.062;2022-08-19T04:11:34;18.80;99.90
7388;DHT22;3735;50.136;11.062;2022-08-19T04:14:08;18.80;99.90
7388;DHT22;3735;50.136;11.062;2022-08-19T04:16:36;18.80;99.90
7388;DHT22;3735;50.136;11.062;2022-08-19T04:19:04;18.90;99.90
7388;DHT22;3735;50.136;11.062;2022-08-19T04:21:32;18.90;99.90
7388;DHT22;3735;50.136;11.062;2022-08-19T04:23:59;18.90;99.90
7388;DHT22;3735;50.136;11.062;2022-08-19T04:26:28;18.90;99.90
7388;DHT22;3735;50.136;11.062;2022-08-19T04:29:12;18.90;99.90
7388;DHT22;3735;50.136;11.062;2022-08-19T04:31:42;19.00;99.90
7388;DHT22;3735;50.136;11.062;2022-08-19T04:34:12;19.00;99.90
7388;DHT22;3735;50.136;11.062;2022-08-19T04:36:42;19.00;99.90
7388;DHT22;3735;50.136;11.062;2022-08-19T04:39:12;19.10;99.90
7388;DHT22;3735;50.136;11.062;2022-08-19T04:41:41;19.10;99.90
7388;DHT22;3735;50.136;11.062;2022-08-19T04:44:26;19.10;99.90
7388;DHT22;3735;50.136;11.062;2022-08-19T04:46:56;19.20;99.90
7388;DHT22;3735;50.136;11.062;2022-08-19T04:49:23;19.20;99.90
7388;DHT22;3735;50.136;11.062;2022-08-19T04:51:50;19.20;99.90
7388;DHT22;3735;50.136;11.062;2022-08-19T04:54:19;19.30;99.90
7388;DHT22;3735;50.136;11.062;2022-08-19T04:56:49;19.30;99.90
7388;DHT22;3735;50.136;11.062;2022-08-19T04:59:16;19.30;99.90
7388;DHT22;3735;50.136;11.062;2022-08-19T05:01:43;19.40;99.90
7388;DHT22;3735;50.136;11.062;2022-08-19T05:04:09;19.40;99.90
7388;DHT22;3735;50.136;11.062;2022-08-19T05:06:35;19.40;99.90
7388;DHT22;3735;50.136;11.062;2022-08-19T05:09:03;19.50;99.90
7388;DHT22;3735;50.136;11.062;2022-08-19T05:11:36;19.50;99.90
7388;DHT22;3735;50.136;11.062;2022-08-19T05:14:08;19.50;99.90
7388;DHT22;3735;50.136;11.062;2022-08-19T05:16:34;19.50;99.90
7388;DHT22;3735;50.136;11.062;2022-08-19T05:19:00;19.50;99.90
7388;DHT22;3735;50.136;11.062;2022-08-19T05:21:45;19.50;99.90
7388;DHT22;3735;50.136;11.062;2022-08-19T05:24:30;19.50;99.90
7388;DHT22;3735;50.136;11.062;2022-08-19T05:26:59;19.50;99.90
7388;DHT22;3735;50.136;11.062;2022-08-19T05:29:29;19.50;99.90
7388;DHT22;3735;50.136;11.062;2022-08-19T05:31:57;19.50;99.90
7388;DHT22;3735;50.136;11.062;2022-08-19T05:34:25;19.50;99.90
7388;DHT22;3735;50.136;11.062;2022-08-19T05:36:57;19.50;99.90
7388;DHT22;3735;50.136;11.062;2022-08-19T05:39:28;19.50;99.90
7388;DHT22;3735;50.136;11.062;2022-08-19T05:41:58;19.60;99.90
7388;DHT22;3735;50.136;11.062;2022-08-19T05:44:32;19.60;99.90
7388;DHT22;3735;50.136;11.062;2022-08-19T05:47:02;19.60;99.90
7388;DHT22;3735;50.136;11.062;2022-08-19T05:49:31;19.60;99.90
7388;DHT22;3735;50.136;11.062;2022-08-19T05:51:57;19.70;99.90
7388;DHT22;3735;50.136;11.062;2022-08-19T05:54:25;19.70;99.90
7388;DHT22;3735;50.136;11.062;2022-08-19T05:56:52;19.70;99.90
7388;DHT22;3735;50.136;11.062;2022-08-19T05:59:19;19.70;99.90
7388;DHT22;3735;50.136;11.062;2022-08-19T06:01:48;19.70;99.90
7388;DHT22;3735;50.136;11.062;2022-08-19T06:04:16;19.70;99.90
7388;DHT22;3735;50.136;11.062;2022-08-19T06:06:46;19.70;99.90
7388;DHT22;3735;50.136;11.062;2022-08-19T06:09:14;19.80;99.90
7388;DHT22;3735;50.136;11.062;2022-08-19T06:11:43;19.80;99.90
7388;DHT22;3735;50.136;11.062;2022-08-19T06:14:18;19.80;99.90
7388;DHT22;3735;50.136;11.062;2022-08-19T06:16:47;19.90;99.90
7388;DHT22;3735;50.136;11.062;2022-08-19T06:19:15;19.90;99.90
7388;DHT22;3735;50.136;11.062;2022-08-19T06:21:44;20.00;99.90
7388;DHT22;3735;50.136;11.062;2022-08-19T06:24:14;20.10;99.90
7388;DHT22;3735;50.136;11.062;2022-08-19T06:26:43;20.10;99.90
7388;DHT22;3735;50.136;11.062;2022-08-19T06:29:13;20.20;99.90
7388;DHT22;3735;50.136;11.062;2022-08-19T06:31:46;20.20;99.90
7388;DHT22;3735;50.136;11.062;2022-08-19T06:34:15;20.20;99.90
7388;DHT22;3735;50.136;11.062;2022-08-19T06:36:45;20.30;99.90
7388;DHT22;3735;50.136;11.062;2022-08-19T06:39:19;20.30;99.90
7388;DHT22;3735;50.136;11.062;2022-08-19T06:41:52;20.30;99.90
7388;DHT22;3735;50.136;11.062;2022-08-19T06:44:22;20.40;99.90
7388;DHT22;3735;50.136;11.062;2022-08-19T06:46:50;20.50;99.90
7388;DHT22;3735;50.136;11.062;2022-08-19T06:49:17;20.50;99.90
7388;DHT22;3735;50.136;11.062;2022-08-19T06:51:45;20.60;99.90
7388;DHT22;3735;50.136;11.062;2022-08-19T06:54:16;20.50;99.90
7388;DHT22;3735;50.136;11.062;2022-08-19T06:56:43;20.60;99.90
7388;DHT22;3735;50.136;11.062;2022-08-19T06:59:13;20.60;99.90
7388;DHT22;3735;50.136;11.062;2022-08-19T07:01:44;20.70;99.90
7388;DHT22;3735;50.136;11.062;2022-08-19T07:04:14;20.70;99.90
7388;DHT22;3735;50.136;11.062;2022-08-19T07:06:43;20.70;99.90
7388;DHT22;3735;50.136;11.062;2022-08-19T07:09:12;20.80;99.90
7388;DHT22;3735;50.136;11.062;2022-08-19T07:11:48;20.80;99.90
7388;DHT22;3735;50.136;11.062;2022-08-19T07:14:16;20.80;99.90
7388;DHT22;3735;50.136;11.062;2022-08-19T07:16:46;20.80;99.90
7388;DHT22;3735;50.136;11.062;2022-08-19T07:19:13;20.80;99.90
7388;DHT22;3735;50.136;11.062;2022-08-19T07:21:40;20.80;99.90
7388;DHT22;3735;50.136;11.062;2022-08-19T07:24:07;20.80;99.90
7388;DHT22;3735;50.136;11.062;2022-08-19T07:26:38;21.00;99.90
7388;DHT22;3735;50.136;11.062;2022-08-19T07:29:07;21.10;99.90
7388;DHT22;3735;50.136;11.062;2022-08-19T07:31:33;21.10;99.90
7388;DHT22;3735;50.136;11.062;2022-08-19T07:34:03;21.10;99.90
7388;DHT22;3735;50.136;11.062;2022-08-19T07:36:36;21.10;99.90
7388;DHT22;3735;50.136;11.062;2022-08-19T07:39:07;21.00;99.90
7388;DHT22;3735;50.136;11.062;2022-08-19T07:41:39;21.00;99.90
7388;DHT22;3735;50.136;11.062;2022-08-19T07:44:05;21.10;99.90
7388;DHT22;3735;50.136;11.062;2022-08-19T07:46:35;21.20;99.90
7388;DHT22;3735;50.136;11.062;2022-08-19T07:49:04;21.40;99.90
7388;DHT22;3735;50.136;11.062;2022-08-19T07:51:31;21.60;99.90
7388;DHT22;3735;50.136;11.062;2022-08-19T07:53:58;21.80;99.90
7388;DHT22;3735;50.136;11.062;2022-08-19T07:56:24;22.20;99.90
7388;DHT22;3735;50.136;11.062;2022-08-19T07:58:51;22.60;99.90
7388;DHT22;3735;50.136;11.062;2022-08-19T08:01:23;22.90;99.90
7388;DHT22;3735;50.136;11.062;2022-08-19T08:03:55;23.20;99.90
7388;DHT22;3735;50.136;11.062;2022-08-19T08:06:41;23.50;99.90
7388;DHT22;3735;50.136;11.062;2022-08-19T08:09:30;23.50;99.90
7388;DHT22;3735;50.136;11.062;2022-08-19T08:12:02;23.50;99.90
7388;DHT22;3735;50.136;11.062;2022-08-19T08:14:41;23.40;99.90
7388;DHT22;3735;50.136;11.062;2022-08-19T08:17:14;23.30;99.90
7388;DHT22;3735;50.136;11.062;2022-08-19T08:19:42;23.20;99.90
7388;DHT22;3735;50.136;11.062;2022-08-19T08:22:11;23.30;99.90
7388;DHT22;3735;50.136;11.062;2022-08-19T08:25:02;23.60;99.90
7388;DHT22;3735;50.136;11.062;2022-08-19T08:27:40;23.70;99.90
7388;DHT22;3735;50.136;11.062;2022-08-19T08:30:19;23.60;99.90
7388;DHT22;3735;50.136;11.062;2022-08-19T08:32:48;23.60;99.90
7388;DHT22;3735;50.136;11.062;2022-08-19T08:35:16;23.60;99.90
7388;DHT22;3735;50.136;11.062;2022-08-19T08:37:45;23.60;99.90
7388;DHT22;3735;50.136;11.062;2022-08-19T08:40:26;23.70;99.90
7388;DHT22;3735;50.136;11.062;2022-08-19T08:43:03;23.90;99.90
7388;DHT22;3735;50.136;11.062;2022-08-19T08:45:38;23.90;99.90
7388;DHT22;3735;50.136;11.062;2022-08-19T08:48:29;24.00;99.90
7388;DHT22;3735;50.136;11.062;2022-08-19T08:51:07;24.60;99.90
7388;DHT22;3735;50.136;11.062;2022-08-19T08:53:37;25.30;99.90
7388;DHT22;3735;50.136;11.062;2022-08-19T08:56:06;25.80;99.90
7388;DHT22;3735;50.136;11.062;2022-08-19T08:58:56;26.10;99.90
7388;DHT22;3735;50.136;11.062;2022-08-19T09:01:25;26.30;99.90
7388;DHT22;3735;50.136;11.062;2022-08-19T09:03:52;26.40;99.90
7388;DHT22;3735;50.136;11.062;2022-08-19T09:09:41;27.30;99.90
7388;DHT22;3735;50.136;11.062;2022-08-19T09:12:23;28.40;99.90
7388;DHT22;3735;50.136;11.062;2022-08-19T09:15:06;29.00;99.90
7388;DHT22;3735;50.136;11.062;2022-08-19T09:17:35;29.50;99.90
7388;DHT22;3735;50.136;11.062;2022-08-19T09:20:23;30.00;99.90
7388;DHT22;3735;50.136;11.062;2022-08-19T09:22:49;30.10;99.90
7388;DHT22;3735;50.136;11.062;2022-08-19T09:25:18;30.10;99.90
7388;DHT22;3735;50.136;11.062;2022-08-19T09:27:48;29.10;99.90
7388;DHT22;3735;50.136;11.062;2022-08-19T09:30:20;28.40;99.90
7388;DHT22;3735;50.136;11.062;2022-08-19T09:32:49;27.70;99.90
7388;DHT22;3735;50.136;11.062;2022-08-19T09:35:18;27.20;99.90
7388;DHT22;3735;50.136;11.062;2022-08-19T09:37:47;26.70;99.90
7388;DHT22;3735;50.136;11.062;2022-08-19T09:40:14;26.30;99.90
7388;DHT22;3735;50.136;11.062;2022-08-19T09:42:42;25.90;99.90
7388;DHT22;3735;50.136;11.062;2022-08-19T09:45:10;25.60;99.90
7388;DHT22;3735;50.136;11.062;2022-08-19T09:47:36;25.30;99.90
7388;DHT22;3735;50.136;11.062;2022-08-19T09:50:05;25.00;99.90
7388;DHT22;3735;50.136;11.062;2022-08-19T09:52:32;24.60;99.90
7388;DHT22;3735;50.136;11.062;2022-08-19T09:55:00;24.20;99.90
7388;DHT22;3735;50.136;11.062;2022-08-19T09:57:25;23.90;99.90
7388;DHT22;3735;50.136;11.062;2022-08-19T09:59:51;23.60;99.90
7388;DHT22;3735;50.136;11.062;2022-08-19T10:02:18;23.40;99.90
7388;DHT22;3735;50.136;11.062;2022-08-19T10:04:44;23.20;99.90
7388;DHT22;3735;50.136;11.062;2022-08-19T10:07:29;23.10;99.90
7388;DHT22;3735;50.136;11.062;2022-08-19T10:09:55;23.00;99.90
7388;DHT22;3735;50.136;11.062;2022-08-19T10:12:22;22.90;99.90
7388;DHT22;3735;50.136;11.062;2022-08-19T10:14:48;22.90;99.90
7388;DHT22;3735;50.136;11.062;2022-08-19T10:17:13;22.90;99.90
7388;DHT22;3735;50.136;11.062;2022-08-19T10:19:40;23.00;99.90
7388;DHT22;3735;50.136;11.062;2022-08-19T10:22:07;23.10;99.90
7388;DHT22;3735;50.136;11.062;2022-08-19T10:24:33;23.20;99.90
7388;DHT22;3735;50.136;11.062;2022-08-19T10:27:00;23.20;99.90
7388;DHT22;3735;50.136;11.062;2022-08-19T10:29:31;23.20;99.90
7388;DHT22;3735;50.136;11.062;2022-08-19T10:32:01;23.20;99.90
7388;DHT22;3735;50.136;11.062;2022-08-19T10:34:29;23.20;99.90
7388;DHT22;3735;50.136;11.062;2022-08-19T10:36:57;23.20;99.90
7388;DHT22;3735;50.136;11.062;2022-08-19T10:39:23;23.20;99.90
7388;DHT22;3735;50.136;11.062;2022-08-19T10:41:49;23.30;99.90
7388;DHT22;3735;50.136;11.062;2022-08-19T10:44:14;23.40;99.90
7388;DHT22;3735;50.136;11.062;2022-08-19T10:46:43;23.50;99.90
7388;DHT22;3735;50.136;11.062;2022-08-19T10:49:10;23.50;99.90
7388;DHT22;3735;50.136;11.062;2022-08-19T10:51:38;23.50;99.90
7388;DHT22;3735;50.136;11.062;2022-08-19T10:54:24;23.50;99.90
7388;DHT22;3735;50.136;11.062;2022-08-19T10:57:10;23.40;99.90
7388;DHT22;3735;50.136;11.062;2022-08-19T10:59:37;23.30;99.90
7388;DHT22;3735;50.136;11.062;2022-08-19T11:02:06;23.30;99.90
7388;DHT22;3735;50.136;11.062;2022-08-19T11:04:36;23.20;99.90
7388;DHT22;3735;50.136;11.062;2022-08-19T11:07:04;23.10;99.90
7388;DHT22;3735;50.136;11.062;2022-08-19T11:09:31;23.00;99.90
7388;DHT22;3735;50.136;11.062;2022-08-19T11:12:02;22.90;99.90
7388;DHT22;3735;50.136;11.062;2022-08-19T11:14:28;22.90;99.90
7388;DHT22;3735;50.136;11.062;2022-08-19T11:16:56;23.00;99.90
7388;DHT22;3735;50.136;11.062;2022-08-19T11:19:22;22.90;99.90
7388;DHT22;3735;50.136;11.062;2022-08-19T11:21:50;23.00;99.90
7388;DHT22;3735;50.136;11.062;2022-08-19T11:24:20;23.00;99.90
7388;DHT22;3735;50.136;11.062;2022-08-19T11:26:49;23.00;99.90
7388;DHT22;3735;50.136;11.062;2022-08-19T11:29:19;23.10;99.90
7388;DHT22;3735;50.136;11.062;2022-08-19T11:31:48;23.10;99.90
7388;DHT22;3735;50.136;11.062;2022-08-19T11:34:24;23.10;99.90
7388;DHT22;3735;50.136;11.062;2022-08-19T11:36:53;23.20;99.90
7388;DHT22;3735;50.136;11.062;2022-08-19T11:39:24;23.20;99.90
7388;DHT22;3735;50.136;11.062;2022-08-19T11:41:52;23.20;99.90
7388;DHT22;3735;50.136;11.062;2022-08-19T11:44:18;23.30;99.90
7388;DHT22;3735;50.136;11.062;2022-08-19T11:46:45;23.30;99.90
7388;DHT22;3735;50.136;11.062;2022-08-19T11:49:16;23.50;99.90
7388;DHT22;3735;50.136;11.062;2022-08-19T11:51:45;23.60;99.90
7388;DHT22;3735;50.136;11.062;2022-08-19T11:54:12;23.60;99.90
7388;DHT22;3735;50.136;11.062;2022-08-19T11:56:41;23.50;99.90
7388;DHT22;3735;50.136;11.062;2022-08-19T11:59:08;23.50;99.90
7388;DHT22;3735;50.136;11.062;2022-08-19T12:01:36;23.50;99.90
7388;DHT22;3735;50.136;11.062;2022-08-19T12:04:02;23.50;99.90
7388;DHT22;3735;50.136;11.062;2022-08-19T12:06:31;23.40;99.90
7388;DHT22;3735;50.136;11.062;2022-08-19T12:09:03;23.30;99.90
7388;DHT22;3735;50.136;11.062;2022-08-19T12:11:30;23.30;99.90
7388;DHT22;3735;50.136;11.062;2022-08-19T12:13:57;23.40;99.90
7388;DHT22;3735;50.136;11.062;2022-08-19T12:16:26;23.50;99.90
7388;DHT22;3735;50.136;11.062;2022-08-19T12:18:54;23.60;99.90
7388;DHT22;3735;50.136;11.062;2022-08-19T12:21:25;24.00;99.90
7388;DHT22;3735;50.136;11.062;2022-08-19T12:23:57;24.10;99.90
7388;DHT22;3735;50.136;11.062;2022-08-19T12:26:26;24.40;99.90
7388;DHT22;3735;50.136;11.062;2022-08-19T12:28:53;24.40;99.90
7388;DHT22;3735;50.136;11.062;2022-08-19T12:31:20;24.60;99.90
7388;DHT22;3735;50.136;11.062;2022-08-19T12:33:46;24.70;99.90
7388;DHT22;3735;50.136;11.062;2022-08-19T12:36:14;24.80;99.90
7388;DHT22;3735;50.136;11.062;2022-08-19T12:38:41;24.80;99.90
7388;DHT22;3735;50.136;11.062;2022-08-19T12:41:11;24.80;99.90
7388;DHT22;3735;50.136;11.062;2022-08-19T12:43:39;24.80;99.90
7388;DHT22;3735;50.136;11.062;2022-08-19T12:46:07;25.10;99.90
7388;DHT22;3735;50.136;11.062;2022-08-19T12:48:34;25.30;99.90
7388;DHT22;3735;50.136;11.062;2022-08-19T12:51:00;25.40;99.90
7388;DHT22;3735;50.136;11.062;2022-08-19T12:53:31;25.50;99.90
7388;DHT22;3735;50.136;11.062;2022-08-19T12:56:00;25.60;99.90
7388;DHT22;3735;50.136;11.062;2022-08-19T12:58:26;25.70;99.90
7388;DHT22;3735;50.136;11.062;2022-08-19T13:00:53;25.80;99.90
7388;DHT22;3735;50.136;11.062;2022-08-19T13:03:20;26.00;99.90
7388;DHT22;3735;50.136;11.062;2022-08-19T13:05:47;26.10;99.90
7388;DHT22;3735;50.136;11.062;2022-08-19T13:08:15;26.20;99.90
7388;DHT22;3735;50.136;11.062;2022-08-19T13:10:42;26.30;99.90
7388;DHT22;3735;50.136;11.062;2022-08-19T13:13:09;26.30;99.90
7388;DHT22;3735;50.136;11.062;2022-08-19T13:15:37;26.20;99.90
7388;DHT22;3735;50.136;11.062;2022-08-19T13:18:10;26.10;99.90
7388;DHT22;3735;50.136;11.062;2022-08-19T13:20:38;26.00;99.90
7388;DHT22;3735;50.136;11.062;2022-08-19T13:23:06;26.00;99.90
7388;DHT22;3735;50.136;11.062;2022-08-19T13:25:33;26.10;99.90
7388;DHT22;3735;50.136;11.062;2022-08-19T13:27:59;26.20;99.90
7388;DHT22;3735;50.136;11.062;2022-08-19T13:30:25;26.30;99.90
7388;DHT22;3735;50.136;11.062;2022-08-19T13:33:09;26.40;99.90
7388;DHT22;3735;50.136;11.062;2022-08-19T13:35:51;26.50;99.90
7388;DHT22;3735;50.136;11.062;2022-08-19T13:38:23;26.50;99.90
7388;DHT22;3735;50.136;11.062;2022-08-19T13:40:51;26.40;99.90
7388;DHT22;3735;50.136;11.062;2022-08-19T13:43:20;26.50;99.90
7388;DHT22;3735;50.136;11.062;2022-08-19T13:45:53;26.60;99.90
7388;DHT22;3735;50.136;11.062;2022-08-19T13:48:21;26.80;99.90
7388;DHT22;3735;50.136;11.062;2022-08-19T13:50:49;26.90;99.90
7388;DHT22;3735;50.136;11.062;2022-08-19T13:53:15;26.90;99.90
7388;DHT22;3735;50.136;11.062;2022-08-19T13:55:42;26.90;99.90
7388;DHT22;3735;50.136;11.062;2022-08-19T13:58:10;26.80;99.90
7388;DHT22;3735;50.136;11.062;2022-08-19T14:00:40;26.40;99.90
7388;DHT22;3735;50.136;11.062;2022-08-19T14:03:08;26.20;99.90
7388;DHT22;3735;50.136;11.062;2022-08-19T14:05:37;26.00;99.90
7388;DHT22;3735;50.136;11.062;2022-08-19T14:08:06;25.90;99.90
7388;DHT22;3735;50.136;11.062;2022-08-19T14:10:33;25.70;99.90
7388;DHT22;3735;50.136;11.062;2022-08-19T14:13:00;25.60;99.90
7388;DHT22;3735;50.136;11.062;2022-08-19T14:15:28;25.70;99.90
7388;DHT22;3735;50.136;11.062;2022-08-19T14:17:55;25.60;99.90
7388;DHT22;3735;50.136;11.062;2022-08-19T14:20:21;25.50;99.90
7388;DHT22;3735;50.136;11.062;2022-08-19T14:22:48;25.50;99.90
7388;DHT22;3735;50.136;11.062;2022-08-19T14:25:17;25.40;99.90
7388;DHT22;3735;50.136;11.062;2022-08-19T14:27:47;25.50;99.90
7388;DHT22;3735;50.136;11.062;2022-08-19T14:30:18;25.40;99.90
7388;DHT22;3735;50.136;11.062;2022-08-19T14:32:46;25.30;99.90
7388;DHT22;3735;50.136;11.062;2022-08-19T14:35:14;25.10;99.90
7388;DHT22;3735;50.136;11.062;2022-08-19T14:37:42;25.10;99.90
7388;DHT22;3735;50.136;11.062;2022-08-19T14:40:10;25.00;99.90
7388;DHT22;3735;50.136;11.062;2022-08-19T14:42:37;24.90;99.90
7388;DHT22;3735;50.136;11.062;2022-08-19T14:45:04;24.80;99.90
7388;DHT22;3735;50.136;11.062;2022-08-19T14:47:30;24.80;99.90
7388;DHT22;3735;50.136;11.062;2022-08-19T14:49:56;24.90;99.90
7388;DHT22;3735;50.136;11.062;2022-08-19T14:52:22;25.00;99.90
7388;DHT22;3735;50.136;11.062;2022-08-19T14:54:48;25.00;99.90
7388;DHT22;3735;50.136;11.062;2022-08-19T14:57:14;25.00;99.90
7388;DHT22;3735;50.136;11.062;2022-08-19T14:59:42;25.00;99.90
7388;DHT22;3735;50.136;11.062;2022-08-19T15:02:09;24.90;99.90
7388;DHT22;3735;50.136;11.062;2022-08-19T15:04:36;24.80;99.90
7388;DHT22;3735;50.136;11.062;2022-08-19T15:07:03;24.70;99.90
7388;DHT22;3735;50.136;11.062;2022-08-19T15:09:31;24.60;99.90
7388;DHT22;3735;50.136;11.062;2022-08-19T15:11:58;24.50;99.90
7388;DHT22;3735;50.136;11.062;2022-08-19T15:14:26;24.20;99.90
7388;DHT22;3735;50.136;11.062;2022-08-19T15:16:52;24.10;99.90
7388;DHT22;3735;50.136;11.062;2022-08-19T15:19:19;23.90;99.90
7388;DHT22;3735;50.136;11.062;2022-08-19T15:21:45;23.70;99.90
7388;DHT22;3735;50.136;11.062;2022-08-19T15:24:11;23.50;99.90
7388;DHT22;3735;50.136;11.062;2022-08-19T15:26:37;23.40;99.90
7388;DHT22;3735;50.136;11.062;2022-08-19T15:29:04;23.30;99.90
7388;DHT22;3735;50.136;11.062;2022-08-19T15:31:30;23.20;99.90
7388;DHT22;3735;50.136;11.062;2022-08-19T15:34:01;23.00;99.90
7388;DHT22;3735;50.136;11.062;2022-08-19T15:36:28;22.90;99.90
7388;DHT22;3735;50.136;11.062;2022-08-19T15:38:57;22.80;99.90
7388;DHT22;3735;50.136;11.062;2022-08-19T15:41:27;22.70;99.90
7388;DHT22;3735;50.136;11.062;2022-08-19T15:44:00;22.50;99.90
7388;DHT22;3735;50.136;11.062;2022-08-19T15:46:32;22.40;99.90
7388;DHT22;3735;50.136;11.062;2022-08-19T15:49:00;22.30;99.90
7388;DHT22;3735;50.136;11.062;2022-08-19T15:51:28;22.20;99.90
7388;DHT22;3735;50.136;11.062;2022-08-19T15:53:55;22.10;99.90
7388;DHT22;3735;50.136;11.062;2022-08-19T15:56:22;22.10;99.90
7388;DHT22;3735;50.136;11.062;2022-08-19T15:58:48;22.00;99.90
7388;DHT22;3735;50.136;11.062;2022-08-19T16:01:33;21.90;99.90